sensor_id;sensor_type;location;lat;lon;timestamp;temperature;humidity
27848;DHT22;15212;48.830;8.730;2022-10-31T00:01:35;15.00;99.90
27848;DHT22;15212;48.830;8.730;2022-10-31T00:04:05;15.00;99.90
27848;DHT22;15212;48.830;8.730;2022-10-31T00:06:33;15.00;99.90
27848;DHT22;15212;48.830;8.730;2022-10-31T00:09:03;15.00;99.90
27848;DHT22;15212;48.830;8.730;2022-10-31T00:11:32;15.00;99.90
27848;DHT22;15212;48.830;8.730;2022-10-31T00:14:01;14.90;99.90
27848;DHT22;15212;48.830;8.730;2022-10-31T00:16:30;14.90;99.90
27848;DHT22;15212;48.830;8.730;2022-10-31T00:19:00;14.80;99.90
27848;DHT22;15212;48.830;8.730;2022-10-31T00:21:31;14.70;99.90
27848;DHT22;15212;48.830;8.730;2022-10-31T00:24:00;14.60;99.90
27848;DHT22;15212;48.830;8.730;2022-10-31T00:26:29;14.50;99.90
27848;DHT22;15212;48.830;8.730;2022-10-31T00:28:59;14.60;99.90
27848;DHT22;15212;48.830;8.730;2022-10-31T00:31:28;14.50;99.90
27848;DHT22;15212;48.830;8.730;2022-10-31T00:33:57;14.40;99.90
27848;DHT22;15212;48.830;8.730;2022-10-31T00:36:26;14.40;99.90
27848;DHT22;15212;48.830;8.730;2022-10-31T00:38:54;14.30;99.90
27848;DHT22;15212;48.830;8.730;2022-10-31T00:41:23;14.30;99.90
27848;DHT22;15212;48.830;8.730;2022-10-31T00:43:51;14.20;99.90
27848;DHT22;15212;48.830;8.730;2022-10-31T00:46:19;14.20;99.90
27848;DHT22;15212;48.830;8.730;2022-10-31T00:48:48;14.10;99.90
27848;DHT22;15212;48.830;8.730;2022-10-31T00:51:16;14.10;99.90
27848;DHT22;15212;48.830;8.730;2022-10-31T00:53:45;14.00;99.90
27848;DHT22;15212;48.830;8.730;2022-10-31T00:56:13;13.90;99.90
27848;DHT22;15212;48.830;8.730;2022-10-31T00:58:41;13.70;99.90
27848;DHT22;15212;48.830;8.730;2022-10-31T01:01:10;13.60;99.90
27848;DHT22;15212;48.830;8.730;2022-10-31T01:03:38;13.50;99.90
27848;DHT22;15212;48.830;8.730;2022-10-31T01:06:09;13.50;99.90
27848;DHT22;15212;48.830;8.730;2022-10-31T01:08:38;13.40;99.90
27848;DHT22;15212;48.830;8.730;2022-10-31T01:11:10;13.40;99.90
27848;DHT22;15212;48.830;8.730;2022-10-31T01:13:41;13.30;99.90
27848;DHT22;15212;48.830;8.730;2022-10-31T01:16:13;13.20;99.90
27848;DHT22;15212;48.830;8.730;2022-10-31T01:18:43;13.00;99.90
27848;DHT22;15212;48.830;8.730;2022-10-31T01:21:15;12.90;99.90
27848;DHT22;15212;48.830;8.730;2022-10-31T01:23:45;12.80;99.90
27848;DHT22;15212;48.830;8.730;2022-10-31T01:26:17;12.80;99.90
27848;DHT22;15212;48.830;8.730;2022-10-31T01:28:51;12.70;99.90
27848;DHT22;15212;48.830;8.730;2022-10-31T01:31:23;12.60;99.90
27848;DHT22;15212;48.830;8.730;2022-10-31T01:33:54;12.50;99.90
27848;DHT22;15212;48.830;8.730;2022-10-31T01:36:25;12.40;99.90
27848;DHT22;15212;48.830;8.730;2022-10-31T01:39:09;12.40;99.90
27848;DHT22;15212;48.830;8.730;2022-10-31T01:41:36;12.40;99.90
27848;DHT22;15212;48.830;8.730;2022-10-31T01:46:56;12.30;99.90
27848;DHT22;15212;48.830;8.730;2022-10-31T01:49:42;12.20;99.90
27848;DHT22;15212;48.830;8.730;2022-10-31T01:52:23;12.00;99.90
27848;DHT22;15212;48.830;8.730;2022-10-31T01:57:40;11.90;99.90
27848;DHT22;15212;48.830;8.730;2022-10-31T02:00:10;12.00;99.90
27848;DHT22;15212;48.830;8.730;2022-10-31T02:02:40;11.90;99.90
27848;DHT22;15212;48.830;8.730;2022-10-31T02:05:12;11.80;99.90
27848;DHT22;15212;48.830;8.730;2022-10-31T02:07:57;11.80;99.90
27848;DHT22;15212;48.830;8.730;2022-10-31T02:10:40;11.80;99.90
27848;DHT22;15212;48.830;8.730;2022-10-31T02:13:11;11.80;99.90
27848;DHT22;15212;48.830;8.730;2022-10-31T02:15:41;11.80;99.90
27848;DHT22;15212;48.830;8.730;2022-10-31T02:18:11;11.70;99.90
27848;DHT22;15212;48.830;8.730;2022-10-31T02:23:30;11.70;99.90
27848;DHT22;15212;48.830;8.730;2022-10-31T02:26:13;11.60;99.90
27848;DHT22;15212;48.830;8.730;2022-10-31T02:32:00;11.60;99.90
27848;DHT22;15212;48.830;8.730;2022-10-31T02:35:17;11.60;99.90
27848;DHT22;15212;48.830;8.730;2022-10-31T02:38:04;11.60;99.90
27848;DHT22;15212;48.830;8.730;2022-10-31T02:40:35;11.60;99.90
27848;DHT22;15212;48.830;8.730;2022-10-31T02:43:26;11.60;99.90
27848;DHT22;15212;48.830;8.730;2022-10-31T02:45:56;11.60;99.90
27848;DHT22;15212;48.830;8.730;2022-10-31T02:48:27;11.60;99.90
27848;DHT22;15212;48.830;8.730;2022-10-31T02:51:01;11.70;99.90
27848;DHT22;15212;48.830;8.730;2022-10-31T02:53:35;11.70;99.90
27848;DHT22;15212;48.830;8.730;2022-10-31T02:56:11;11.70;99.90
27848;DHT22;15212;48.830;8.730;2022-10-31T02:58:51;11.80;99.90
27848;DHT22;15212;48.830;8.730;2022-10-31T03:01:33;11.80;99.90
27848;DHT22;15212;48.830;8.730;2022-10-31T03:04:20;12.00;99.90
27848;DHT22;15212;48.830;8.730;2022-10-31T03:07:20;12.10;99.90
27848;DHT22;15212;48.830;8.730;2022-10-31T03:09:55;12.20;99.90
27848;DHT22;15212;48.830;8.730;2022-10-31T03:12:54;12.10;99.90
27848;DHT22;15212;48.830;8.730;2022-10-31T03:15:25;12.00;99.90
27848;DHT22;15212;48.830;8.730;2022-10-31T03:20:41;11.90;99.90
27848;DHT22;15212;48.830;8.730;2022-10-31T03:23:16;11.80;99.90
27848;DHT22;15212;48.830;8.730;2022-10-31T03:25:47;11.80;99.90
27848;DHT22;15212;48.830;8.730;2022-10-31T03:28:18;11.80;99.90
27848;DHT22;15212;48.830;8.730;2022-10-31T03:30:51;11.80;99.90
27848;DHT22;15212;48.830;8.730;2022-10-31T03:33:24;11.80;99.90
27848;DHT22;15212;48.830;8.730;2022-10-31T03:35:55;11.80;99.90
27848;DHT22;15212;48.830;8.730;2022-10-31T03:38:25;11.80;99.90
27848;DHT22;15212;48.830;8.730;2022-10-31T03:40:56;11.80;99.90
27848;DHT22;15212;48.830;8.730;2022-10-31T03:43:28;11.70;99.90
27848;DHT22;15212;48.830;8.730;2022-10-31T03:46:04;11.80;99.90
27848;DHT22;15212;48.830;8.730;2022-10-31T03:48:33;11.90;99.90
27848;DHT22;15212;48.830;8.730;2022-10-31T03:51:08;11.90;99.90
27848;DHT22;15212;48.830;8.730;2022-10-31T03:54:08;12.00;99.90
27848;DHT22;15212;48.830;8.730;2022-10-31T03:56:39;12.00;99.90
27848;DHT22;15212;48.830;8.730;2022-10-31T03:59:44;12.00;99.90
27848;DHT22;15212;48.830;8.730;2022-10-31T04:01:52;12.10;99.90
27848;DHT22;15212;48.830;8.730;2022-10-31T04:04:23;12.10;99.90
27848;DHT22;15212;48.830;8.730;2022-10-31T04:06:54;12.20;99.90
27848;DHT22;15212;48.830;8.730;2022-10-31T04:09:26;12.20;99.90
27848;DHT22;15212;48.830;8.730;2022-10-31T04:11:57;12.30;99.90
27848;DHT22;15212;48.830;8.730;2022-10-31T04:14:28;12.40;99.90
27848;DHT22;15212;48.830;8.730;2022-10-31T04:16:58;12.50;99.90
27848;DHT22;15212;48.830;8.730;2022-10-31T04:19:27;12.50;99.90
27848;DHT22;15212;48.830;8.730;2022-10-31T04:21:55;12.50;99.90
27848;DHT22;15212;48.830;8.730;2022-10-31T04:24:23;12.60;99.90
27848;DHT22;15212;48.830;8.730;2022-10-31T04:26:52;12.60;99.90
27848;DHT22;15212;48.830;8.730;2022-10-31T04:29:20;12.60;99.90
27848;DHT22;15212;48.830;8.730;2022-10-31T04:31:48;12.60;99.90
27848;DHT22;15212;48.830;8.730;2022-10-31T04:34:17;12.60;99.90
27848;DHT22;15212;48.830;8.730;2022-10-31T04:36:45;12.50;99.90
27848;DHT22;15212;48.830;8.730;2022-10-31T04:39:14;12.50;99.90
27848;DHT22;15212;48.830;8.730;2022-10-31T04:41:42;12.60;99.90
27848;DHT22;15212;48.830;8.730;2022-10-31T04:44:10;12.70;99.90
27848;DHT22;15212;48.830;8.730;2022-10-31T04:46:39;12.70;99.90
27848;DHT22;15212;48.830;8.730;2022-10-31T04:49:07;12.80;99.90
27848;DHT22;15212;48.830;8.730;2022-10-31T04:51:35;12.90;99.90
27848;DHT22;15212;48.830;8.730;2022-10-31T04:54:04;13.00;99.90
27848;DHT22;15212;48.830;8.730;2022-10-31T04:56:32;13.00;99.90
27848;DHT22;15212;48.830;8.730;2022-10-31T04:59:01;13.00;99.90
27848;DHT22;15212;48.830;8.730;2022-10-31T05:01:29;13.00;99.90
27848;DHT22;15212;48.830;8.730;2022-10-31T05:03:57;13.00;99.90
27848;DHT22;15212;48.830;8.730;2022-10-31T05:06:26;13.00;99.90
27848;DHT22;15212;48.830;8.730;2022-10-31T05:08:54;13.00;99.90
27848;DHT22;15212;48.830;8.730;2022-10-31T05:11:23;12.90;99.90
27848;DHT22;15212;48.830;8.730;2022-10-31T05:13:51;12.90;99.90
27848;DHT22;15212;48.830;8.730;2022-10-31T05:16:19;12.80;99.90
27848;DHT22;15212;48.830;8.730;2022-10-31T05:18:48;12.80;99.90
27848;DHT22;15212;48.830;8.730;2022-10-31T05:21:16;12.70;99.90
27848;DHT22;15212;48.830;8.730;2022-10-31T05:23:45;12.70;99.90
27848;DHT22;15212;48.830;8.730;2022-10-31T05:26:13;12.70;99.90
27848;DHT22;15212;48.830;8.730;2022-10-31T05:28:41;12.60;99.90
27848;DHT22;15212;48.830;8.730;2022-10-31T05:31:10;12.50;99.90
27848;DHT22;15212;48.830;8.730;2022-10-31T05:33:38;12.40;99.90
27848;DHT22;15212;48.830;8.730;2022-10-31T05:36:07;12.40;99.90
27848;DHT22;15212;48.830;8.730;2022-10-31T05:38:35;12.30;99.90
27848;DHT22;15212;48.830;8.730;2022-10-31T05:41:04;12.30;99.90
27848;DHT22;15212;48.830;8.730;2022-10-31T05:43:32;12.30;99.90
27848;DHT22;15212;48.830;8.730;2022-10-31T05:46:00;12.20;99.90
27848;DHT22;15212;48.830;8.730;2022-10-31T05:48:29;12.30;99.90
27848;DHT22;15212;48.830;8.730;2022-10-31T05:50:57;12.20;99.90
27848;DHT22;15212;48.830;8.730;2022-10-31T05:53:25;12.20;99.90
27848;DHT22;15212;48.830;8.730;2022-10-31T05:55:54;12.10;99.90
27848;DHT22;15212;48.830;8.730;2022-10-31T05:58:22;12.10;99.90
27848;DHT22;15212;48.830;8.730;2022-10-31T06:00:51;12.10;99.90
27848;DHT22;15212;48.830;8.730;2022-10-31T06:03:20;12.00;99.90
27848;DHT22;15212;48.830;8.730;2022-10-31T06:05:48;12.00;99.90
27848;DHT22;15212;48.830;8.730;2022-10-31T06:08:17;12.00;99.90
27848;DHT22;15212;48.830;8.730;2022-10-31T06:10:45;11.90;99.90
27848;DHT22;15212;48.830;8.730;2022-10-31T06:13:13;11.90;99.90
27848;DHT22;15212;48.830;8.730;2022-10-31T06:15:42;11.80;99.90
27848;DHT22;15212;48.830;8.730;2022-10-31T06:18:10;11.80;99.90
27848;DHT22;15212;48.830;8.730;2022-10-31T06:20:39;11.80;99.90
27848;DHT22;15212;48.830;8.730;2022-10-31T06:23:07;11.80;99.90
27848;DHT22;15212;48.830;8.730;2022-10-31T06:25:36;11.80;99.90
27848;DHT22;15212;48.830;8.730;2022-10-31T06:28:04;11.80;99.90
27848;DHT22;15212;48.830;8.730;2022-10-31T06:30:33;11.80;99.90
27848;DHT22;15212;48.830;8.730;2022-10-31T06:33:07;11.80;99.90
27848;DHT22;15212;48.830;8.730;2022-10-31T06:35:32;11.90;99.90
27848;DHT22;15212;48.830;8.730;2022-10-31T06:38:01;12.00;99.90
27848;DHT22;15212;48.830;8.730;2022-10-31T06:40:29;12.10;99.90
27848;DHT22;15212;48.830;8.730;2022-10-31T06:42:59;12.20;99.90
27848;DHT22;15212;48.830;8.730;2022-10-31T06:45:28;12.30;99.90
27848;DHT22;15212;48.830;8.730;2022-10-31T06:47:56;12.40;99.90
27848;DHT22;15212;48.830;8.730;2022-10-31T06:50:25;12.50;99.90
27848;DHT22;15212;48.830;8.730;2022-10-31T06:52:55;12.50;99.90
27848;DHT22;15212;48.830;8.730;2022-10-31T06:55:25;12.60;99.90
27848;DHT22;15212;48.830;8.730;2022-10-31T06:58:01;12.60;99.90
27848;DHT22;15212;48.830;8.730;2022-10-31T07:00:30;12.70;99.90
27848;DHT22;15212;48.830;8.730;2022-10-31T07:03:02;12.70;99.90
27848;DHT22;15212;48.830;8.730;2022-10-31T07:05:32;12.80;99.90
27848;DHT22;15212;48.830;8.730;2022-10-31T07:08:03;12.90;99.90
27848;DHT22;15212;48.830;8.730;2022-10-31T07:10:35;13.00;99.90
27848;DHT22;15212;48.830;8.730;2022-10-31T07:13:06;13.10;99.90
27848;DHT22;15212;48.830;8.730;2022-10-31T07:15:39;13.10;99.90
27848;DHT22;15212;48.830;8.730;2022-10-31T07:18:10;13.20;99.90
27848;DHT22;15212;48.830;8.730;2022-10-31T07:20:39;13.20;99.90
27848;DHT22;15212;48.830;8.730;2022-10-31T07:23:09;13.30;99.90
27848;DHT22;15212;48.830;8.730;2022-10-31T07:25:39;13.40;99.90
27848;DHT22;15212;48.830;8.730;2022-10-31T07:28:07;13.50;99.90
27848;DHT22;15212;48.830;8.730;2022-10-31T07:30:37;13.60;99.90
27848;DHT22;15212;48.830;8.730;2022-10-31T07:33:06;13.70;99.90
27848;DHT22;15212;48.830;8.730;2022-10-31T07:35:35;13.80;99.90
27848;DHT22;15212;48.830;8.730;2022-10-31T07:38:11;13.90;99.90
27848;DHT22;15212;48.830;8.730;2022-10-31T07:40:41;14.00;99.90
27848;DHT22;15212;48.830;8.730;2022-10-31T07:43:11;14.10;99.90
27848;DHT22;15212;48.830;8.730;2022-10-31T07:45:40;14.10;99.90
27848;DHT22;15212;48.830;8.730;2022-10-31T07:48:08;14.20;99.90
27848;DHT22;15212;48.830;8.730;2022-10-31T07:50:36;14.30;99.90
27848;DHT22;15212;48.830;8.730;2022-10-31T07:53:08;14.40;99.90
27848;DHT22;15212;48.830;8.730;2022-10-31T07:55:38;14.50;99.90
27848;DHT22;15212;48.830;8.730;2022-10-31T07:58:14;14.60;99.90
27848;DHT22;15212;48.830;8.730;2022-10-31T08:00:45;14.70;99.90
27848;DHT22;15212;48.830;8.730;2022-10-31T08:03:17;14.80;99.90
27848;DHT22;15212;48.830;8.730;2022-10-31T08:05:46;14.90;99.90
27848;DHT22;15212;48.830;8.730;2022-10-31T08:08:15;15.00;99.90
27848;DHT22;15212;48.830;8.730;2022-10-31T08:10:43;15.10;99.90
27848;DHT22;15212;48.830;8.730;2022-10-31T08:13:13;15.10;99.90
27848;DHT22;15212;48.830;8.730;2022-10-31T08:15:41;15.30;99.90
27848;DHT22;15212;48.830;8.730;2022-10-31T08:18:14;15.30;99.90
27848;DHT22;15212;48.830;8.730;2022-10-31T08:20:43;15.40;99.90
27848;DHT22;15212;48.830;8.730;2022-10-31T08:23:12;15.50;99.90
27848;DHT22;15212;48.830;8.730;2022-10-31T08:25:40;15.70;99.90
27848;DHT22;15212;48.830;8.730;2022-10-31T08:28:10;15.80;99.90
27848;DHT22;15212;48.830;8.730;2022-10-31T08:30:39;15.90;99.90
27848;DHT22;15212;48.830;8.730;2022-10-31T08:35:41;16.10;99.90
27848;DHT22;15212;48.830;8.730;2022-10-31T08:38:11;16.20;99.90
27848;DHT22;15212;48.830;8.730;2022-10-31T08:40:40;16.30;99.90
27848;DHT22;15212;48.830;8.730;2022-10-31T08:43:13;16.30;99.90
27848;DHT22;15212;48.830;8.730;2022-10-31T08:45:44;16.50;99.90
27848;DHT22;15212;48.830;8.730;2022-10-31T08:48:15;16.70;99.90
27848;DHT22;15212;48.830;8.730;2022-10-31T08:50:45;16.80;99.90
27848;DHT22;15212;48.830;8.730;2022-10-31T08:53:16;17.00;99.90
27848;DHT22;15212;48.830;8.730;2022-10-31T08:55:46;17.10;99.90
27848;DHT22;15212;48.830;8.730;2022-10-31T08:58:17;17.20;99.90
27848;DHT22;15212;48.830;8.730;2022-10-31T09:00:47;17.30;99.90
27848;DHT22;15212;48.830;8.730;2022-10-31T09:03:22;17.50;99.90
27848;DHT22;15212;48.830;8.730;2022-10-31T09:05:59;17.60;99.90
27848;DHT22;15212;48.830;8.730;2022-10-31T09:08:30;17.80;99.90
27848;DHT22;15212;48.830;8.730;2022-10-31T09:10:59;17.90;99.90
27848;DHT22;15212;48.830;8.730;2022-10-31T09:13:28;18.10;99.90
27848;DHT22;15212;48.830;8.730;2022-10-31T09:15:56;18.20;99.90
27848;DHT22;15212;48.830;8.730;2022-10-31T09:18:28;18.40;99.90
27848;DHT22;15212;48.830;8.730;2022-10-31T09:20:59;18.40;99.90
27848;DHT22;15212;48.830;8.730;2022-10-31T09:23:28;18.60;99.90
27848;DHT22;15212;48.830;8.730;2022-10-31T09:25:59;18.60;99.90
27848;DHT22;15212;48.830;8.730;2022-10-31T09:28:28;18.70;99.90
27848;DHT22;15212;48.830;8.730;2022-10-31T09:30:58;18.70;99.90
27848;DHT22;15212;48.830;8.730;2022-10-31T09:33:26;18.80;99.90
27848;DHT22;15212;48.830;8.730;2022-10-31T09:35:54;18.80;99.90
27848;DHT22;15212;48.830;8.730;2022-10-31T09:38:24;18.80;99.90
27848;DHT22;15212;48.830;8.730;2022-10-31T09:47:21;18.90;99.90
27848;DHT22;15212;48.830;8.730;2022-10-31T09:50:34;18.90;99.90
27848;DHT22;15212;48.830;8.730;2022-10-31T09:53:16;19.00;99.90
27848;DHT22;15212;48.830;8.730;2022-10-31T09:55:59;19.00;99.90
27848;DHT22;15212;48.830;8.730;2022-10-31T09:58:29;19.10;99.90
27848;DHT22;15212;48.830;8.730;2022-10-31T10:01:01;19.10;99.90
27848;DHT22;15212;48.830;8.730;2022-10-31T10:06:14;19.10;99.90
27848;DHT22;15212;48.830;8.730;2022-10-31T10:08:47;19.10;99.90
27848;DHT22;15212;48.830;8.730;2022-10-31T10:20:09;19.20;99.90
27848;DHT22;15212;48.830;8.730;2022-10-31T10:23:08;19.20;99.90
27848;DHT22;15212;48.830;8.730;2022-10-31T10:25:23;19.20;99.90
27848;DHT22;15212;48.830;8.730;2022-10-31T10:28:14;19.20;99.90
27848;DHT22;15212;48.830;8.730;2022-10-31T10:30:56;19.10;99.90
27848;DHT22;15212;48.830;8.730;2022-10-31T10:36:12;19.10;99.90
27848;DHT22;15212;48.830;8.730;2022-10-31T10:38:57;19.10;99.90
27848;DHT22;15212;48.830;8.730;2022-10-31T10:41:33;19.10;99.90
27848;DHT22;15212;48.830;8.730;2022-10-31T10:44:01;19.00;99.90
27848;DHT22;15212;48.830;8.730;2022-10-31T10:46:40;19.00;99.90
27848;DHT22;15212;48.830;8.730;2022-10-31T10:49:49;18.90;99.90
27848;DHT22;15212;48.830;8.730;2022-10-31T10:56:02;19.00;99.90
27848;DHT22;15212;48.830;8.730;2022-10-31T10:58:06;19.00;99.90
27848;DHT22;15212;48.830;8.730;2022-10-31T11:00:41;18.90;99.90
27848;DHT22;15212;48.830;8.730;2022-10-31T11:03:13;18.90;99.90
27848;DHT22;15212;48.830;8.730;2022-10-31T11:05:54;18.80;99.90
27848;DHT22;15212;48.830;8.730;2022-10-31T11:08:26;18.80;99.90
27848;DHT22;15212;48.830;8.730;2022-10-31T11:11:03;18.70;99.90
27848;DHT22;15212;48.830;8.730;2022-10-31T11:14:04;18.60;99.90
27848;DHT22;15212;48.830;8.730;2022-10-31T11:16:40;18.60;99.90
27848;DHT22;15212;48.830;8.730;2022-10-31T11:19:18;18.50;99.90
27848;DHT22;15212;48.830;8.730;2022-10-31T11:21:48;18.50;99.90
27848;DHT22;15212;48.830;8.730;2022-10-31T11:24:19;18.50;99.90
27848;DHT22;15212;48.830;8.730;2022-10-31T11:26:51;18.50;99.90
27848;DHT22;15212;48.830;8.730;2022-10-31T11:29:25;18.50;99.90
27848;DHT22;15212;48.830;8.730;2022-10-31T11:31:56;18.50;99.90
27848;DHT22;15212;48.830;8.730;2022-10-31T11:34:37;18.60;99.90
27848;DHT22;15212;48.830;8.730;2022-10-31T11:37:16;18.60;99.90
27848;DHT22;15212;48.830;8.730;2022-10-31T11:39:55;18.60;99.90
27848;DHT22;15212;48.830;8.730;2022-10-31T11:42:36;18.60;99.90
27848;DHT22;15212;48.830;8.730;2022-10-31T11:45:00;18.60;99.90
27848;DHT22;15212;48.830;8.730;2022-10-31T11:47:33;18.60;99.90
27848;DHT22;15212;48.830;8.730;2022-10-31T11:50:09;18.60;99.90
27848;DHT22;15212;48.830;8.730;2022-10-31T11:52:37;18.60;99.90
27848;DHT22;15212;48.830;8.730;2022-10-31T11:57:53;18.50;99.90
27848;DHT22;15212;48.830;8.730;2022-10-31T12:00:26;18.50;99.90
27848;DHT22;15212;48.830;8.730;2022-10-31T12:06:06;18.50;99.90
27848;DHT22;15212;48.830;8.730;2022-10-31T12:08:45;18.60;99.90
27848;DHT22;15212;48.830;8.730;2022-10-31T12:14:14;18.70;99.90
27848;DHT22;15212;48.830;8.730;2022-10-31T12:16:53;18.80;99.90
27848;DHT22;15212;48.830;8.730;2022-10-31T12:25:51;18.80;99.90
27848;DHT22;15212;48.830;8.730;2022-10-31T12:29:00;18.70;99.90
27848;DHT22;15212;48.830;8.730;2022-10-31T12:32:17;18.70;99.90
27848;DHT22;15212;48.830;8.730;2022-10-31T12:35:15;18.60;99.90
27848;DHT22;15212;48.830;8.730;2022-10-31T12:38:09;18.60;99.90
27848;DHT22;15212;48.830;8.730;2022-10-31T12:40:51;18.50;99.90
27848;DHT22;15212;48.830;8.730;2022-10-31T12:46:06;18.50;99.90
27848;DHT22;15212;48.830;8.730;2022-10-31T12:52:21;18.50;99.90
27848;DHT22;15212;48.830;8.730;2022-10-31T12:55:08;18.40;99.90
27848;DHT22;15212;48.830;8.730;2022-10-31T12:57:38;18.30;99.90
27848;DHT22;15212;48.830;8.730;2022-10-31T13:00:18;18.20;99.90
27848;DHT22;15212;48.830;8.730;2022-10-31T13:03:26;18.20;99.90
27848;DHT22;15212;48.830;8.730;2022-10-31T13:05:59;18.10;99.90
27848;DHT22;15212;48.830;8.730;2022-10-31T13:08:39;18.10;99.90
27848;DHT22;15212;48.830;8.730;2022-10-31T13:11:12;18.10;99.90
27848;DHT22;15212;48.830;8.730;2022-10-31T13:13:55;18.10;99.90
27848;DHT22;15212;48.830;8.730;2022-10-31T13:16:26;18.20;99.90
27848;DHT22;15212;48.830;8.730;2022-10-31T13:19:09;18.40;99.90
27848;DHT22;15212;48.830;8.730;2022-10-31T13:22:06;18.70;99.90
27848;DHT22;15212;48.830;8.730;2022-10-31T13:27:48;19.10;99.90
27848;DHT22;15212;48.830;8.730;2022-10-31T13:30:22;19.30;99.90
27848;DHT22;15212;48.830;8.730;2022-10-31T13:33:15;19.30;99.90
27848;DHT22;15212;48.830;8.730;2022-10-31T13:38:51;19.40;99.90
27848;DHT22;15212;48.830;8.730;2022-10-31T13:41:52;19.40;99.90
27848;DHT22;15212;48.830;8.730;2022-10-31T13:44:26;19.30;99.90
27848;DHT22;15212;48.830;8.730;2022-10-31T13:46:57;19.10;99.90
27848;DHT22;15212;48.830;8.730;2022-10-31T13:54:50;18.60;99.90
27848;DHT22;15212;48.830;8.730;2022-10-31T13:57:23;18.50;99.90
27848;DHT22;15212;48.830;8.730;2022-10-31T14:00:03;18.50;99.90
27848;DHT22;15212;48.830;8.730;2022-10-31T14:02:53;18.50;99.90
27848;DHT22;15212;48.830;8.730;2022-10-31T14:05:29;18.60;99.90
27848;DHT22;15212;48.830;8.730;2022-10-31T14:08:03;18.60;99.90
27848;DHT22;15212;48.830;8.730;2022-10-31T14:10:37;18.60;99.90
27848;DHT22;15212;48.830;8.730;2022-10-31T14:13:08;18.60;99.90
27848;DHT22;15212;48.830;8.730;2022-10-31T14:15:59;18.60;99.90
27848;DHT22;15212;48.830;8.730;2022-10-31T14:18:39;18.60;99.90
27848;DHT22;15212;48.830;8.730;2022-10-31T14:21:16;18.60;99.90
27848;DHT22;15212;48.830;8.730;2022-10-31T14:23:53;18.70;99.90
27848;DHT22;15212;48.830;8.730;2022-10-31T14:31:57;18.80;99.90
27848;DHT22;15212;48.830;8.730;2022-10-31T14:34:40;18.70;99.90
27848;DHT22;15212;48.830;8.730;2022-10-31T14:43:04;18.60;99.90
27848;DHT22;15212;48.830;8.730;2022-10-31T14:45:40;18.50;99.90
27848;DHT22;15212;48.830;8.730;2022-10-31T14:48:40;18.60;99.90
27848;DHT22;15212;48.830;8.730;2022-10-31T14:51:13;18.40;99.90
27848;DHT22;15212;48.830;8.730;2022-10-31T14:53:49;18.30;99.90
27848;DHT22;15212;48.830;8.730;2022-10-31T14:56:22;18.20;99.90
27848;DHT22;15212;48.830;8.730;2022-10-31T14:58:57;18.10;99.90
27848;DHT22;15212;48.830;8.730;2022-10-31T15:01:31;18.00;99.90
27848;DHT22;15212;48.830;8.730;2022-10-31T15:04:04;17.90;99.90
27848;DHT22;15212;48.830;8.730;2022-10-31T15:07:22;17.70;99.90
27848;DHT22;15212;48.830;8.730;2022-10-31T15:12:34;17.50;99.90
27848;DHT22;15212;48.830;8.730;2022-10-31T15:17:49;17.20;99.90
27848;DHT22;15212;48.830;8.730;2022-10-31T15:20:27;17.20;99.90
27848;DHT22;15212;48.830;8.730;2022-10-31T15:22:58;17.10;99.90
27848;DHT22;15212;48.830;8.730;2022-10-31T15:25:30;17.10;99.90
27848;DHT22;15212;48.830;8.730;2022-10-31T15:28:00;17.00;99.90
27848;DHT22;15212;48.830;8.730;2022-10-31T15:30:29;17.00;99.90
27848;DHT22;15212;48.830;8.730;2022-10-31T15:32:57;16.90;99.90
27848;DHT22;15212;48.830;8.730;2022-10-31T15:35:32;16.80;99.90
27848;DHT22;15212;48.830;8.730;2022-10-31T15:37:58;16.80;99.90
27848;DHT22;15212;48.830;8.730;2022-10-31T15:40:28;16.70;99.90
27848;DHT22;15212;48.830;8.730;2022-10-31T15:43:03;16.60;99.90
27848;DHT22;15212;48.830;8.730;2022-10-31T15:45:31;16.50;99.90
27848;DHT22;15212;48.830;8.730;2022-10-31T15:48:11;16.30;99.90
27848;DHT22;15212;48.830;8.730;2022-10-31T15:50:54;16.20;99.90
27848;DHT22;15212;48.830;8.730;2022-10-31T15:53:22;16.10;99.90
27848;DHT22;15212;48.830;8.730;2022-10-31T15:56:04;16.00;99.90
27848;DHT22;15212;48.830;8.730;2022-10-31T15:58:47;15.90;99.90
27848;DHT22;15212;48.830;8.730;2022-10-31T16:01:25;15.80;99.90
27848;DHT22;15212;48.830;8.730;2022-10-31T16:06:43;15.60;99.90
27848;DHT22;15212;48.830;8.730;2022-10-31T16:09:22;15.50;99.90
27848;DHT22;15212;48.830;8.730;2022-10-31T16:11:51;15.30;99.90
27848;DHT22;15212;48.830;8.730;2022-10-31T16:14:25;15.30;99.90
27848;DHT22;15212;48.830;8.730;2022-10-31T16:16:57;15.20;99.90
27848;DHT22;15212;48.830;8.730;2022-10-31T16:19:32;15.10;99.90
27848;DHT22;15212;48.830;8.730;2022-10-31T16:22:11;14.90;99.90
27848;DHT22;15212;48.830;8.730;2022-10-31T16:24:54;14.90;99.90
27848;DHT22;15212;48.830;8.730;2022-10-31T16:27:27;14.90;99.90
27848;DHT22;15212;48.830;8.730;2022-10-31T16:29:57;14.90;99.90
27848;DHT22;15212;48.830;8.730;2022-10-31T16:32:51;14.90;99.90
27848;DHT22;15212;48.830;8.730;2022-10-31T16:35:26;14.90;99.90
27848;DHT22;15212;48.830;8.730;2022-10-31T16:37:55;14.80;99.90
27848;DHT22;15212;48.830;8.730;2022-10-31T16:40:24;14.80;99.90
27848;DHT22;15212;48.830;8.730;2022-10-31T16:42:53;14.80;99.90
27848;DHT22;15212;48.830;8.730;2022-10-31T16:45:25;14.80;99.90
27848;DHT22;15212;48.830;8.730;2022-10-31T16:47:54;14.80;99.90
27848;DHT22;15212;48.830;8.730;2022-10-31T16:50:29;14.80;99.90
27848;DHT22;15212;48.830;8.730;2022-10-31T16:52:57;14.80;99.90
27848;DHT22;15212;48.830;8.730;2022-10-31T16:55:25;14.80;99.90
27848;DHT22;15212;48.830;8.730;2022-10-31T16:57:55;14.80;99.90
27848;DHT22;15212;48.830;8.730;2022-10-31T17:00:25;14.80;99.90
27848;DHT22;15212;48.830;8.730;2022-10-31T17:02:56;14.80;99.90
27848;DHT22;15212;48.830;8.730;2022-10-31T17:05:25;14.80;99.90
27848;DHT22;15212;48.830;8.730;2022-10-31T17:07:59;14.80;99.90
27848;DHT22;15212;48.830;8.730;2022-10-31T17:10:27;14.80;99.90
27848;DHT22;15212;48.830;8.730;2022-10-31T17:12:56;14.80;99.90
27848;DHT22;15212;48.830;8.730;2022-10-31T17:15:27;14.90;99.90
27848;DHT22;15212;48.830;8.730;2022-10-31T17:17:56;14.90;99.90
27848;DHT22;15212;48.830;8.730;2022-10-31T17:20:27;14.90;99.90
27848;DHT22;15212;48.830;8.730;2022-10-31T17:22:58;15.00;99.90
27848;DHT22;15212;48.830;8.730;2022-10-31T17:25:28;15.00;99.90
27848;DHT22;15212;48.830;8.730;2022-10-31T17:27:58;15.00;99.90
27848;DHT22;15212;48.830;8.730;2022-10-31T17:30:26;15.00;99.90
27848;DHT22;15212;48.830;8.730;2022-10-31T17:32:54;15.00;99.90
27848;DHT22;15212;48.830;8.730;2022-10-31T17:35:23;14.90;99.90
27848;DHT22;15212;48.830;8.730;2022-10-31T17:37:52;14.80;99.90
27848;DHT22;15212;48.830;8.730;2022-10-31T17:40:21;14.80;99.90
27848;DHT22;15212;48.830;8.730;2022-10-31T17:42:58;14.80;99.90